KSJC

Norman Y Mineta San Jose International Airport

San Jose, California, USA
METAR KSJC 212253Z 31010KT 10SM CLR 26/12 A2997 RMK AO2 SLP148 T02560117
Observed Flight Rules
Jun-21 @ 22:53 UTC (60 minutes ago) Visual Flight Rules
Wind Visibility Clouds
310° at 10 knots 10 miles
  • Clear skies
Temperatures Readings
Current 26°C / 79°F
Dewpoint 12°C / 54°F
Humidity 42%
Altimeter 29.97" Hg
Pressure 1014.8 hPa
Elevation 24
METAR KSJC 212253Z 31010KT 10SM CLR 26/12 A2997 RMK AO2 SLP148 T02560117
Observed Flight Rules
Jun-21 @ 22:53 UTC
(60 minutes ago)
VFR
Wind Visibility
310° at 10 knots 10 miles
Clouds
  • Clear skies
Temperature Dewpoint
26°C / 79°F 12°C / 54°F
Humidity Altimeter Pressure
42% 29.97" Hg 1014.8 hPa